sensor_id;sensor_type;location;lat;lon;timestamp;pressure;altitude;pressure_sealevel;temperature;humidity
5877;BME280;2964;42.144;24.730;2023-11-21T00:00:23;143465.31;;;7.51;94.58
5877;BME280;2964;42.144;24.730;2023-11-21T00:02:50;143496.66;;;7.64;93.69
5877;BME280;2964;42.144;24.730;2023-11-21T00:05:17;143469.09;;;7.52;94.06
5877;BME280;2964;42.144;24.730;2023-11-21T00:07:45;143459.03;;;7.48;94.72
5877;BME280;2964;42.144;24.730;2023-11-21T00:10:12;143449.00;;;7.44;93.82
5877;BME280;2964;42.144;24.730;2023-11-21T00:12:41;143470.34;;;7.53;94.02
5877;BME280;2964;42.144;24.730;2023-11-21T00:15:08;143471.56;;;7.53;93.59
5877;BME280;2964;42.144;24.730;2023-11-21T00:17:36;143461.56;;;7.49;93.71
5877;BME280;2964;42.144;24.730;2023-11-21T00:20:04;143470.34;;;7.53;93.81
5877;BME280;2964;42.144;24.730;2023-11-21T00:22:32;143464.03;;;7.50;93.27
5877;BME280;2964;42.144;24.730;2023-11-21T00:25:00;143425.22;;;7.34;93.93
5877;BME280;2964;42.144;24.730;2023-11-21T00:27:29;143474.09;;;7.54;93.39
5877;BME280;2964;42.144;24.730;2023-11-21T00:29:55;143469.09;;;7.52;93.89
5877;BME280;2964;42.144;24.730;2023-11-21T00:32:22;143467.81;;;7.52;93.59
5877;BME280;2964;42.144;24.730;2023-11-21T00:34:49;143456.56;;;7.47;92.73
5877;BME280;2964;42.144;24.730;2023-11-21T00:37:16;143450.25;;;7.45;92.31
5877;BME280;2964;42.144;24.730;2023-11-21T00:39:42;143482.88;;;7.58;91.88
5877;BME280;2964;42.144;24.730;2023-11-21T00:42:11;143464.03;;;7.50;91.94
5877;BME280;2964;42.144;24.730;2023-11-21T00:44:38;143476.56;;;7.56;91.54
5877;BME280;2964;42.144;24.730;2023-11-21T00:47:05;143459.03;;;7.48;91.83
5877;BME280;2964;42.144;24.730;2023-11-21T00:49:33;143474.09;;;7.54;91.44
5877;BME280;2964;42.144;24.730;2023-11-21T00:52:00;143471.56;;;7.53;91.54
5877;BME280;2964;42.144;24.730;2023-11-21T00:54:28;143467.81;;;7.52;92.03
5877;BME280;2964;42.144;24.730;2023-11-21T00:56:54;143496.66;;;7.64;91.03
5877;BME280;2964;42.144;24.730;2023-11-21T00:59:23;143527.97;;;7.77;90.18
5877;BME280;2964;42.144;24.730;2023-11-21T01:01:49;143527.97;;;7.77;90.03
5877;BME280;2964;42.144;24.730;2023-11-21T01:04:16;143524.22;;;7.75;89.38
5877;BME280;2964;42.144;24.730;2023-11-21T01:06:43;143558.03;;;7.89;89.34
5877;BME280;2964;42.144;24.730;2023-11-21T01:09:10;143447.78;;;7.44;89.19
5877;BME280;2964;42.144;24.730;2023-11-21T01:11:38;143486.59;;;7.60;91.18
5877;BME280;2964;42.144;24.730;2023-11-21T01:14:04;143538.00;;;7.81;90.72
5877;BME280;2964;42.144;24.730;2023-11-21T01:16:33;143603.16;;;8.07;89.11
5877;BME280;2964;42.144;24.730;2023-11-21T01:19:00;143575.56;;;7.96;88.97
5877;BME280;2964;42.144;24.730;2023-11-21T01:21:26;143496.66;;;7.64;92.16
5877;BME280;2964;42.144;24.730;2023-11-21T01:23:54;143452.78;;;7.46;92.02
5877;BME280;2964;42.144;24.730;2023-11-21T01:26:21;143422.69;;;7.33;92.82
5877;BME280;2964;42.144;24.730;2023-11-21T01:28:48;143405.16;;;7.26;94.05
5877;BME280;2964;42.144;24.730;2023-11-21T01:31:15;143444.00;;;7.42;93.44
5877;BME280;2964;42.144;24.730;2023-11-21T01:33:43;143436.47;;;7.39;92.48
5877;BME280;2964;42.144;24.730;2023-11-21T01:36:10;143372.59;;;7.13;94.36
5877;BME280;2964;42.144;24.730;2023-11-21T01:38:37;143338.81;;;6.99;95.13
5877;BME280;2964;42.144;24.730;2023-11-21T01:41:04;143337.53;;;6.99;94.73
5877;BME280;2964;42.144;24.730;2023-11-21T01:43:31;143328.75;;;6.95;95.87
5877;BME280;2964;42.144;24.730;2023-11-21T01:45:59;143380.13;;;7.16;94.70
5877;BME280;2964;42.144;24.730;2023-11-21T01:48:26;143417.69;;;7.31;93.92
5877;BME280;2964;42.144;24.730;2023-11-21T01:50:55;143356.31;;;7.06;95.46
5877;BME280;2964;42.144;24.730;2023-11-21T01:53:24;143380.13;;;7.16;94.40
5877;BME280;2964;42.144;24.730;2023-11-21T01:55:53;143311.22;;;6.88;95.99
5877;BME280;2964;42.144;24.730;2023-11-21T01:58:20;143239.88;;;6.59;96.94
5877;BME280;2964;42.144;24.730;2023-11-21T02:00:47;143291.19;;;6.80;96.37
5877;BME280;2964;42.144;24.730;2023-11-21T02:03:16;143281.19;;;6.75;96.92
5877;BME280;2964;42.144;24.730;2023-11-21T02:05:43;143253.66;;;6.64;97.27
5877;BME280;2964;42.144;24.730;2023-11-21T02:08:11;143239.88;;;6.59;97.87
5877;BME280;2964;42.144;24.730;2023-11-21T02:10:37;143238.59;;;6.58;98.54
5877;BME280;2964;42.144;24.730;2023-11-21T02:13:04;143243.59;;;6.60;98.62
5877;BME280;2964;42.144;24.730;2023-11-21T02:15:31;143258.66;;;6.66;98.95
5877;BME280;2964;42.144;24.730;2023-11-21T02:17:58;143263.66;;;6.68;98.94
5877;BME280;2964;42.144;24.730;2023-11-21T02:20:26;143259.91;;;6.67;98.42
5877;BME280;2964;42.144;24.730;2023-11-21T02:22:56;143224.84;;;6.52;98.99
5877;BME280;2964;42.144;24.730;2023-11-21T02:25:24;143209.81;;;6.46;99.47
5877;BME280;2964;42.144;24.730;2023-11-21T02:27:51;143208.59;;;6.46;99.07
5877;BME280;2964;42.144;24.730;2023-11-21T02:30:19;143227.34;;;6.53;97.98
5877;BME280;2964;42.144;24.730;2023-11-21T02:32:47;143174.78;;;6.32;99.80
5877;BME280;2964;42.144;24.730;2023-11-21T02:35:14;143234.84;;;6.56;99.76
5877;BME280;2964;42.144;24.730;2023-11-21T02:37:41;143227.34;;;6.53;98.78
5877;BME280;2964;42.144;24.730;2023-11-21T02:40:11;143256.13;;;6.65;97.50
5877;BME280;2964;42.144;24.730;2023-11-21T02:42:40;143216.06;;;6.49;98.25
5877;BME280;2964;42.144;24.730;2023-11-21T02:45:08;143168.53;;;6.29;99.05
5877;BME280;2964;42.144;24.730;2023-11-21T02:47:38;143120.94;;;6.10;100.00
5877;BME280;2964;42.144;24.730;2023-11-21T02:50:05;143132.25;;;6.14;99.95
5877;BME280;2964;42.144;24.730;2023-11-21T02:52:33;143085.91;;;5.95;99.97
5877;BME280;2964;42.144;24.730;2023-11-21T02:55:00;143129.72;;;6.13;100.00
5877;BME280;2964;42.144;24.730;2023-11-21T02:57:28;143118.47;;;6.09;100.00
5877;BME280;2964;42.144;24.730;2023-11-21T02:59:55;143144.72;;;6.19;100.00
5877;BME280;2964;42.144;24.730;2023-11-21T03:02:22;143115.94;;;6.08;100.00
5877;BME280;2964;42.144;24.730;2023-11-21T03:04:49;143089.66;;;5.97;100.00
5877;BME280;2964;42.144;24.730;2023-11-21T03:07:15;143055.84;;;5.83;100.00
5877;BME280;2964;42.144;24.730;2023-11-21T03:09:44;143050.84;;;5.81;100.00
5877;BME280;2964;42.144;24.730;2023-11-21T03:12:11;143055.84;;;5.83;100.00
5877;BME280;2964;42.144;24.730;2023-11-21T03:14:40;143067.09;;;5.88;100.00
5877;BME280;2964;42.144;24.730;2023-11-21T03:17:06;143084.63;;;5.95;100.00
5877;BME280;2964;42.144;24.730;2023-11-21T03:19:33;143018.28;;;5.68;100.00
5877;BME280;2964;42.144;24.730;2023-11-21T03:22:00;143044.56;;;5.78;100.00
5877;BME280;2964;42.144;24.730;2023-11-21T03:24:26;143108.44;;;6.05;100.00
5877;BME280;2964;42.144;24.730;2023-11-21T03:26:52;143055.84;;;5.83;100.00
5877;BME280;2964;42.144;24.730;2023-11-21T03:29:19;143015.81;;;5.67;100.00
5877;BME280;2964;42.144;24.730;2023-11-21T03:31:47;143023.28;;;5.70;100.00
5877;BME280;2964;42.144;24.730;2023-11-21T03:34:16;143010.81;;;5.65;100.00
5877;BME280;2964;42.144;24.730;2023-11-21T03:36:43;143004.53;;;5.62;100.00
5877;BME280;2964;42.144;24.730;2023-11-21T03:39:11;142992.00;;;5.57;100.00
5877;BME280;2964;42.144;24.730;2023-11-21T03:41:38;142980.78;;;5.52;100.00
5877;BME280;2964;42.144;24.730;2023-11-21T03:44:05;142955.75;;;5.42;100.00
5877;BME280;2964;42.144;24.730;2023-11-21T03:46:31;142930.75;;;5.32;100.00
5877;BME280;2964;42.144;24.730;2023-11-21T03:48:59;142959.50;;;5.44;100.00
5877;BME280;2964;42.144;24.730;2023-11-21T03:51:26;142953.28;;;5.41;100.00
5877;BME280;2964;42.144;24.730;2023-11-21T03:53:53;142938.28;;;5.35;100.00
5877;BME280;2964;42.144;24.730;2023-11-21T03:56:20;142940.75;;;5.36;100.00
5877;BME280;2964;42.144;24.730;2023-11-21T03:58:47;142958.28;;;5.43;100.00
5877;BME280;2964;42.144;24.730;2023-11-21T04:01:19;142943.28;;;5.37;100.00
5877;BME280;2964;42.144;24.730;2023-11-21T04:03:47;142937.00;;;5.34;100.00
5877;BME280;2964;42.144;24.730;2023-11-21T04:06:15;142898.25;;;5.18;100.00
5877;BME280;2964;42.144;24.730;2023-11-21T04:08:42;142918.25;;;5.27;100.00
5877;BME280;2964;42.144;24.730;2023-11-21T04:11:09;142880.75;;;5.11;100.00
5877;BME280;2964;42.144;24.730;2023-11-21T04:13:37;142900.72;;;5.19;100.00
5877;BME280;2964;42.144;24.730;2023-11-21T04:16:04;142899.50;;;5.19;100.00
5877;BME280;2964;42.144;24.730;2023-11-21T04:18:31;142905.72;;;5.21;100.00
5877;BME280;2964;42.144;24.730;2023-11-21T04:20:58;142888.22;;;5.14;100.00
5877;BME280;2964;42.144;24.730;2023-11-21T04:23:27;142888.22;;;5.14;100.00
5877;BME280;2964;42.144;24.730;2023-11-21T04:25:54;142885.75;;;5.13;100.00
5877;BME280;2964;42.144;24.730;2023-11-21T04:28:22;142900.72;;;5.19;100.00
5877;BME280;2964;42.144;24.730;2023-11-21T04:30:49;142933.25;;;5.33;100.00
5877;BME280;2964;42.144;24.730;2023-11-21T04:33:16;142905.72;;;5.21;100.00
5877;BME280;2964;42.144;24.730;2023-11-21T04:35:43;142850.72;;;4.99;100.00
5877;BME280;2964;42.144;24.730;2023-11-21T04:38:09;142824.47;;;4.88;100.00
5877;BME280;2964;42.144;24.730;2023-11-21T04:40:37;142898.25;;;5.18;100.00
5877;BME280;2964;42.144;24.730;2023-11-21T04:43:04;142924.47;;;5.29;100.00
5877;BME280;2964;42.144;24.730;2023-11-21T04:45:31;142900.72;;;5.19;100.00
5877;BME280;2964;42.144;24.730;2023-11-21T04:47:58;142915.75;;;5.26;100.00
5877;BME280;2964;42.144;24.730;2023-11-21T04:50:25;142918.25;;;5.27;100.00
5877;BME280;2964;42.144;24.730;2023-11-21T04:52:53;142922.00;;;5.28;100.00
5877;BME280;2964;42.144;24.730;2023-11-21T04:55:20;142908.25;;;5.22;100.00
5877;BME280;2964;42.144;24.730;2023-11-21T04:57:48;142915.75;;;5.26;100.00
5877;BME280;2964;42.144;24.730;2023-11-21T05:00:15;142918.25;;;5.27;100.00
5877;BME280;2964;42.144;24.730;2023-11-21T05:02:42;142925.75;;;5.30;100.00
5877;BME280;2964;42.144;24.730;2023-11-21T05:05:09;142922.00;;;5.28;100.00
5877;BME280;2964;42.144;24.730;2023-11-21T05:07:36;142937.00;;;5.34;100.00
5877;BME280;2964;42.144;24.730;2023-11-21T05:10:06;142998.31;;;5.59;100.00
5877;BME280;2964;42.144;24.730;2023-11-21T05:12:36;142973.25;;;5.49;100.00
5877;BME280;2964;42.144;24.730;2023-11-21T05:15:06;142970.78;;;5.48;100.00
5877;BME280;2964;42.144;24.730;2023-11-21T05:17:35;142958.28;;;5.43;100.00
5877;BME280;2964;42.144;24.730;2023-11-21T05:20:02;142889.50;;;5.15;100.00
5877;BME280;2964;42.144;24.730;2023-11-21T05:22:33;142965.78;;;5.46;100.00
5877;BME280;2964;42.144;24.730;2023-11-21T05:25:00;142959.50;;;5.44;100.00
5877;BME280;2964;42.144;24.730;2023-11-21T05:27:28;142967.03;;;5.47;100.00
5877;BME280;2964;42.144;24.730;2023-11-21T05:29:55;142973.25;;;5.49;100.00
5877;BME280;2964;42.144;24.730;2023-11-21T05:32:23;142992.00;;;5.57;100.00
5877;BME280;2964;42.144;24.730;2023-11-21T05:34:50;142977.03;;;5.51;100.00
5877;BME280;2964;42.144;24.730;2023-11-21T05:37:16;142975.78;;;5.50;100.00
5877;BME280;2964;42.144;24.730;2023-11-21T05:39:43;142994.53;;;5.58;100.00
5877;BME280;2964;42.144;24.730;2023-11-21T05:42:10;143083.38;;;5.94;100.00
5877;BME280;2964;42.144;24.730;2023-11-21T05:44:37;143053.34;;;5.82;100.00
5877;BME280;2964;42.144;24.730;2023-11-21T05:47:04;143084.63;;;5.95;100.00
5877;BME280;2964;42.144;24.730;2023-11-21T05:49:34;143108.44;;;6.05;100.00
5877;BME280;2964;42.144;24.730;2023-11-21T05:52:01;143095.94;;;5.99;100.00
5877;BME280;2964;42.144;24.730;2023-11-21T05:54:27;143065.84;;;5.87;100.00
5877;BME280;2964;42.144;24.730;2023-11-21T05:56:54;143059.63;;;5.85;100.00
5877;BME280;2964;42.144;24.730;2023-11-21T05:59:21;143040.81;;;5.77;100.00
5877;BME280;2964;42.144;24.730;2023-11-21T06:01:48;142998.31;;;5.59;100.00
5877;BME280;2964;42.144;24.730;2023-11-21T06:04:14;143043.34;;;5.78;100.00
5877;BME280;2964;42.144;24.730;2023-11-21T06:06:42;143119.72;;;6.09;100.00
5877;BME280;2964;42.144;24.730;2023-11-21T06:09:09;143143.47;;;6.19;99.79
5877;BME280;2964;42.144;24.730;2023-11-21T06:11:37;143132.25;;;6.14;99.55
5877;BME280;2964;42.144;24.730;2023-11-21T06:14:04;143095.94;;;5.99;100.00
5877;BME280;2964;42.144;24.730;2023-11-21T06:16:33;143098.44;;;6.01;100.00
5877;BME280;2964;42.144;24.730;2023-11-21T06:19:00;143154.75;;;6.24;100.00
5877;BME280;2964;42.144;24.730;2023-11-21T06:21:26;143149.75;;;6.22;100.00
5877;BME280;2964;42.144;24.730;2023-11-21T06:23:55;143242.38;;;6.60;97.87
5877;BME280;2964;42.144;24.730;2023-11-21T06:26:22;143213.59;;;6.48;97.18
5877;BME280;2964;42.144;24.730;2023-11-21T06:28:49;143268.66;;;6.70;96.71
5877;BME280;2964;42.144;24.730;2023-11-21T06:31:18;143261.13;;;6.67;96.80
5877;BME280;2964;42.144;24.730;2023-11-21T06:33:44;143296.22;;;6.82;96.78
5877;BME280;2964;42.144;24.730;2023-11-21T06:36:12;143266.13;;;6.69;95.10
5877;BME280;2964;42.144;24.730;2023-11-21T06:38:38;143242.38;;;6.60;96.64
5877;BME280;2964;42.144;24.730;2023-11-21T06:41:07;143277.44;;;6.74;95.87
5877;BME280;2964;42.144;24.730;2023-11-21T06:43:33;143278.69;;;6.74;94.81
5877;BME280;2964;42.144;24.730;2023-11-21T06:46:01;143261.13;;;6.67;94.01
5877;BME280;2964;42.144;24.730;2023-11-21T06:48:28;143213.59;;;6.48;95.28
5877;BME280;2964;42.144;24.730;2023-11-21T06:50:55;143274.91;;;6.73;94.54
5877;BME280;2964;42.144;24.730;2023-11-21T06:53:22;143208.59;;;6.46;94.84
5877;BME280;2964;42.144;24.730;2023-11-21T06:55:48;143244.88;;;6.61;95.07
5877;BME280;2964;42.144;24.730;2023-11-21T06:58:16;143198.53;;;6.42;96.24
5877;BME280;2964;42.144;24.730;2023-11-21T07:00:43;143269.91;;;6.71;95.00
5877;BME280;2964;42.144;24.730;2023-11-21T07:03:12;143321.28;;;6.92;94.82
5877;BME280;2964;42.144;24.730;2023-11-21T07:05:39;143356.31;;;7.06;93.69
5877;BME280;2964;42.144;24.730;2023-11-21T07:08:06;143390.16;;;7.20;92.55
5877;BME280;2964;42.144;24.730;2023-11-21T07:10:33;143408.94;;;7.28;92.45
5877;BME280;2964;42.144;24.730;2023-11-21T07:13:00;143456.56;;;7.47;91.22
5877;BME280;2964;42.144;24.730;2023-11-21T07:15:28;143418.94;;;7.32;91.56
5877;BME280;2964;42.144;24.730;2023-11-21T07:17:55;143376.38;;;7.14;92.29
5877;BME280;2964;42.144;24.730;2023-11-21T07:20:21;143341.28;;;7.00;92.68
5877;BME280;2964;42.144;24.730;2023-11-21T07:22:48;143351.28;;;7.04;92.67
5877;BME280;2964;42.144;24.730;2023-11-21T07:25:15;143361.34;;;7.08;93.75
5877;BME280;2964;42.144;24.730;2023-11-21T07:27:42;143466.56;;;7.51;91.23
5877;BME280;2964;42.144;24.730;2023-11-21T07:30:10;143455.25;;;7.47;91.70
5877;BME280;2964;42.144;24.730;2023-11-21T07:32:39;143373.84;;;7.13;92.22
5877;BME280;2964;42.144;24.730;2023-11-21T07:35:07;143321.28;;;6.92;93.48
5877;BME280;2964;42.144;24.730;2023-11-21T07:37:34;143388.91;;;7.20;93.47
5877;BME280;2964;42.144;24.730;2023-11-21T07:40:01;143445.25;;;7.43;92.73
5877;BME280;2964;42.144;24.730;2023-11-21T07:42:28;143408.94;;;7.28;91.94
5877;BME280;2964;42.144;24.730;2023-11-21T07:44:55;143502.91;;;7.66;91.63
5877;BME280;2964;42.144;24.730;2023-11-21T07:47:22;143484.13;;;7.59;90.89
5877;BME280;2964;42.144;24.730;2023-11-21T07:49:54;143556.78;;;7.88;90.68
5877;BME280;2964;42.144;24.730;2023-11-21T07:52:21;143576.81;;;7.97;90.28
5877;BME280;2964;42.144;24.730;2023-11-21T07:54:48;143657.06;;;8.29;89.10
5877;BME280;2964;42.144;24.730;2023-11-21T07:57:14;143655.81;;;8.29;88.89
5877;BME280;2964;42.144;24.730;2023-11-21T07:59:41;143717.31;;;8.54;88.28
5877;BME280;2964;42.144;24.730;2023-11-21T08:02:08;143836.47;;;9.03;87.18
5877;BME280;2964;42.144;24.730;2023-11-21T08:04:34;143839.00;;;9.04;85.48
5877;BME280;2964;42.144;24.730;2023-11-21T08:07:03;143805.09;;;8.90;85.88
5877;BME280;2964;42.144;24.730;2023-11-21T08:09:30;143782.50;;;8.81;86.97
5877;BME280;2964;42.144;24.730;2023-11-21T08:11:57;143679.63;;;8.39;87.48
5877;BME280;2964;42.144;24.730;2023-11-21T08:14:26;143752.41;;;8.68;87.13
5877;BME280;2964;42.144;24.730;2023-11-21T08:16:52;143782.50;;;8.81;87.06
5877;BME280;2964;42.144;24.730;2023-11-21T08:19:22;143833.97;;;9.02;86.66
5877;BME280;2964;42.144;24.730;2023-11-21T08:21:50;143841.47;;;9.05;86.17
5877;BME280;2964;42.144;24.730;2023-11-21T08:24:20;143850.25;;;9.08;85.87
5877;BME280;2964;42.144;24.730;2023-11-21T08:26:47;143901.72;;;9.30;85.63
5877;BME280;2964;42.144;24.730;2023-11-21T08:29:14;143935.56;;;9.43;84.33
5877;BME280;2964;42.144;24.730;2023-11-21T08:31:42;143950.63;;;9.50;84.66
5877;BME280;2964;42.144;24.730;2023-11-21T08:34:10;143969.47;;;9.57;84.26
5877;BME280;2964;42.144;24.730;2023-11-21T08:36:41;143980.75;;;9.62;84.73
5877;BME280;2964;42.144;24.730;2023-11-21T08:39:08;144042.28;;;9.87;83.04
5877;BME280;2964;42.144;24.730;2023-11-21T08:41:36;144051.06;;;9.91;83.78
5877;BME280;2964;42.144;24.730;2023-11-21T08:44:03;144078.69;;;10.02;82.72
5877;BME280;2964;42.144;24.730;2023-11-21T08:46:32;144126.38;;;10.21;82.88
5877;BME280;2964;42.144;24.730;2023-11-21T08:49:00;144174.16;;;10.41;82.77
5877;BME280;2964;42.144;24.730;2023-11-21T08:51:27;144267.13;;;10.79;80.89
5877;BME280;2964;42.144;24.730;2023-11-21T08:53:54;144311.06;;;10.97;80.01
5877;BME280;2964;42.144;24.730;2023-11-21T08:56:24;144424.16;;;11.43;79.36
5877;BME280;2964;42.144;24.730;2023-11-21T08:58:52;144648.06;;;12.34;75.30
5877;BME280;2964;42.144;24.730;2023-11-21T09:01:19;144901.03;;;13.38;70.93
5877;BME280;2964;42.144;24.730;2023-11-21T09:03:46;145019.38;;;13.86;67.72
5877;BME280;2964;42.144;24.730;2023-11-21T09:06:13;145084.84;;;14.13;66.32
5877;BME280;2964;42.144;24.730;2023-11-21T09:08:40;145142.81;;;14.36;66.32
5877;BME280;2964;42.144;24.730;2023-11-21T09:11:07;145371.00;;;15.29;63.94
5877;BME280;2964;42.144;24.730;2023-11-21T09:13:34;145541.25;;;15.98;62.79
5877;BME280;2964;42.144;24.730;2023-11-21T09:16:03;145720.44;;;16.71;58.37
5877;BME280;2964;42.144;24.730;2023-11-21T09:18:31;145980.56;;;17.77;56.20
5877;BME280;2964;42.144;24.730;2023-11-21T09:20:57;146387.63;;;19.42;51.82
5877;BME280;2964;42.144;24.730;2023-11-21T09:23:24;146449.56;;;19.67;47.28
5877;BME280;2964;42.144;24.730;2023-11-21T09:25:51;146283.94;;;19.00;48.22
5877;BME280;2964;42.144;24.730;2023-11-21T09:28:22;146045.00;;;18.03;49.57
5877;BME280;2964;42.144;24.730;2023-11-21T09:30:48;145757.09;;;16.86;51.26
5877;BME280;2964;42.144;24.730;2023-11-21T09:33:17;145248.72;;;14.79;57.34
5877;BME280;2964;42.144;24.730;2023-11-21T09:35:43;145454.19;;;15.63;56.34
5877;BME280;2964;42.144;24.730;2023-11-21T09:38:10;145465.53;;;15.68;55.73
5877;BME280;2964;42.144;24.730;2023-11-21T09:40:37;145417.63;;;15.48;56.77
5877;BME280;2964;42.144;24.730;2023-11-21T09:43:06;145514.75;;;15.88;55.99
5877;BME280;2964;42.144;24.730;2023-11-21T09:45:45;145495.84;;;15.80;56.23
5877;BME280;2964;42.144;24.730;2023-11-21T09:48:13;145278.94;;;14.92;57.21
5877;BME280;2964;42.144;24.730;2023-11-21T09:50:43;145130.19;;;14.31;58.69
5877;BME280;2964;42.144;24.730;2023-11-21T09:53:13;145024.41;;;13.88;60.30
5877;BME280;2964;42.144;24.730;2023-11-21T09:55:44;144913.63;;;13.43;61.17
5877;BME280;2964;42.144;24.730;2023-11-21T09:58:13;144943.81;;;13.55;61.55
5877;BME280;2964;42.144;24.730;2023-11-21T10:00:41;145049.63;;;13.98;60.71
5877;BME280;2964;42.144;24.730;2023-11-21T10:03:08;145038.28;;;13.94;61.14
5877;BME280;2964;42.144;24.730;2023-11-21T10:05:35;144947.59;;;13.57;61.71
5877;BME280;2964;42.144;24.730;2023-11-21T10:08:07;144776.38;;;12.87;63.06
5877;BME280;2964;42.144;24.730;2023-11-21T10:10:36;144926.19;;;13.48;62.40
5877;BME280;2964;42.144;24.730;2023-11-21T10:13:06;144890.97;;;13.34;62.21
5877;BME280;2964;42.144;24.730;2023-11-21T10:15:33;144908.56;;;13.41;61.84
5877;BME280;2964;42.144;24.730;2023-11-21T10:18:02;145000.50;;;13.78;60.90
5877;BME280;2964;42.144;24.730;2023-11-21T10:20:30;144985.38;;;13.72;60.20
5877;BME280;2964;42.144;24.730;2023-11-21T10:22:56;144995.47;;;13.76;60.50
5877;BME280;2964;42.144;24.730;2023-11-21T10:25:25;145082.38;;;14.12;59.66
5877;BME280;2964;42.144;24.730;2023-11-21T10:27:57;145042.06;;;13.95;59.29
5877;BME280;2964;42.144;24.730;2023-11-21T10:30:28;145048.34;;;13.98;59.36
5877;BME280;2964;42.144;24.730;2023-11-21T10:32:59;145100.00;;;14.19;58.97
5877;BME280;2964;42.144;24.730;2023-11-21T10:35:38;145147.84;;;14.38;58.51
5877;BME280;2964;42.144;24.730;2023-11-21T10:38:05;145145.34;;;14.37;58.62
5877;BME280;2964;42.144;24.730;2023-11-21T10:40:37;145141.56;;;14.36;58.73
5877;BME280;2964;42.144;24.730;2023-11-21T10:43:06;145019.38;;;13.86;58.84
5877;BME280;2964;42.144;24.730;2023-11-21T10:45:34;145071.00;;;14.07;58.25
5877;BME280;2964;42.144;24.730;2023-11-21T10:48:05;145023.16;;;13.87;58.48
5877;BME280;2964;42.144;24.730;2023-11-21T10:50:33;145060.94;;;14.03;58.00
5877;BME280;2964;42.144;24.730;2023-11-21T10:53:01;145122.66;;;14.28;57.95
5877;BME280;2964;42.144;24.730;2023-11-21T10:55:29;145074.78;;;14.08;57.47
5877;BME280;2964;42.144;24.730;2023-11-21T10:57:58;145071.00;;;14.07;57.79
5877;BME280;2964;42.144;24.730;2023-11-21T11:00:27;145118.88;;;14.26;57.92
5877;BME280;2964;42.144;24.730;2023-11-21T11:02:54;145168.03;;;14.46;57.02
5877;BME280;2964;42.144;24.730;2023-11-21T11:05:22;145146.59;;;14.38;57.07
5877;BME280;2964;42.144;24.730;2023-11-21T11:07:51;145180.63;;;14.52;56.77
5877;BME280;2964;42.144;24.730;2023-11-21T11:10:20;145108.81;;;14.22;57.25
5877;BME280;2964;42.144;24.730;2023-11-21T11:12:48;145108.81;;;14.22;57.65
5877;BME280;2964;42.144;24.730;2023-11-21T11:15:16;145105.03;;;14.21;57.73
5877;BME280;2964;42.144;24.730;2023-11-21T11:17:45;145018.13;;;13.85;58.12
5877;BME280;2964;42.144;24.730;2023-11-21T11:20:13;145098.72;;;14.18;57.76
5877;BME280;2964;42.144;24.730;2023-11-21T11:22:50;145054.66;;;14.00;57.40
5877;BME280;2964;42.144;24.730;2023-11-21T11:25:38;145071.00;;;14.07;58.43
5877;BME280;2964;42.144;24.730;2023-11-21T11:28:11;145135.28;;;14.33;57.55
5877;BME280;2964;42.144;24.730;2023-11-21T11:30:50;145049.63;;;13.98;57.39
5877;BME280;2964;42.144;24.730;2023-11-21T11:33:29;145079.81;;;14.10;57.44
5877;BME280;2964;42.144;24.730;2023-11-21T11:36:03;145105.03;;;14.21;57.73
5877;BME280;2964;42.144;24.730;2023-11-21T11:38:32;145068.50;;;14.06;57.63
5877;BME280;2964;42.144;24.730;2023-11-21T11:41:02;145077.34;;;14.09;57.63
5877;BME280;2964;42.144;24.730;2023-11-21T11:43:29;145047.09;;;13.97;58.36
5877;BME280;2964;42.144;24.730;2023-11-21T11:46:01;145021.94;;;13.87;59.26
5877;BME280;2964;42.144;24.730;2023-11-21T11:48:30;144985.38;;;13.72;59.94
5877;BME280;2964;42.144;24.730;2023-11-21T11:51:01;144967.78;;;13.65;59.91
5877;BME280;2964;42.144;24.730;2023-11-21T11:53:33;144835.50;;;13.11;60.20
5877;BME280;2964;42.144;24.730;2023-11-21T11:56:20;144902.28;;;13.38;60.12
5877;BME280;2964;42.144;24.730;2023-11-21T11:58:48;144913.63;;;13.43;60.78
5877;BME280;2964;42.144;24.730;2023-11-21T12:01:18;144938.78;;;13.53;60.44
5877;BME280;2964;42.144;24.730;2023-11-21T12:04:23;144918.66;;;13.45;60.14
5877;BME280;2964;42.144;24.730;2023-11-21T12:06:57;144880.81;;;13.29;60.71
5877;BME280;2964;42.144;24.730;2023-11-21T12:09:26;144918.66;;;13.45;60.61
5877;BME280;2964;42.144;24.730;2023-11-21T12:11:53;144918.66;;;13.45;60.34
5877;BME280;2964;42.144;24.730;2023-11-21T12:14:22;144906.06;;;13.40;60.61
5877;BME280;2964;42.144;24.730;2023-11-21T12:16:50;144896.00;;;13.36;60.54
5877;BME280;2964;42.144;24.730;2023-11-21T12:19:18;144820.44;;;13.05;60.82
5877;BME280;2964;42.144;24.730;2023-11-21T12:21:46;144921.16;;;13.46;60.97
5877;BME280;2964;42.144;24.730;2023-11-21T12:24:14;144923.69;;;13.47;60.66
5877;BME280;2964;42.144;24.730;2023-11-21T12:26:41;144917.38;;;13.44;61.01
5877;BME280;2964;42.144;24.730;2023-11-21T12:29:08;144830.47;;;13.09;60.45
5877;BME280;2964;42.144;24.730;2023-11-21T12:31:36;144921.16;;;13.46;60.01
5877;BME280;2964;42.144;24.730;2023-11-21T12:34:04;144940.03;;;13.54;60.14
5877;BME280;2964;42.144;24.730;2023-11-21T12:36:32;144936.31;;;13.52;60.38
5877;BME280;2964;42.144;24.730;2023-11-21T12:39:00;144981.63;;;13.70;60.23
5877;BME280;2964;42.144;24.730;2023-11-21T12:41:28;145006.78;;;13.81;60.17
5877;BME280;2964;42.144;24.730;2023-11-21T12:43:55;144953.88;;;13.59;59.95
5877;BME280;2964;42.144;24.730;2023-11-21T12:46:23;144957.66;;;13.61;59.97
5877;BME280;2964;42.144;24.730;2023-11-21T12:48:51;144948.84;;;13.57;60.35
5877;BME280;2964;42.144;24.730;2023-11-21T12:51:21;144914.88;;;13.43;60.58
5877;BME280;2964;42.144;24.730;2023-11-21T12:53:48;145026.97;;;13.89;59.65
5877;BME280;2964;42.144;24.730;2023-11-21T12:56:15;145009.31;;;13.82;59.63
5877;BME280;2964;42.144;24.730;2023-11-21T12:58:44;145006.78;;;13.81;59.94
5877;BME280;2964;42.144;24.730;2023-11-21T13:01:13;145001.75;;;13.79;59.99
5877;BME280;2964;42.144;24.730;2023-11-21T13:03:46;144997.97;;;13.77;60.48
5877;BME280;2964;42.144;24.730;2023-11-21T13:06:14;145019.38;;;13.86;60.01
5877;BME280;2964;42.144;24.730;2023-11-21T13:08:43;144962.69;;;13.63;60.48